Time;durP1;ratioP1;P1;durP2;ratioP2;P2;SDS_P1;SDS_P2;PMS_P1;PMS_P2;Temp;Humidity;BMP_temperature;BMP_pressure;BME280_temperature;BME280_humidity;BME280_pressure;Samples;Min_cycle;Max_cycle;Signal;HPM_P1;HPM_P2
2022/03/14 00:01:50;;;;;;;3.70;2.50;;;10.10;45.70;;;;;;4968904;28;34242;-75
2022/03/14 00:04:17;;;;;;;2.90;2.50;;;10.10;45.80;;;;;;5002355;28;34247;-75
2022/03/14 00:06:49;;;;;;;2.40;2.13;;;10.10;45.90;;;;;;4968685;28;34375;-74
2022/03/14 00:09:17;;;;;;;3.30;2.63;;;10.10;45.90;;;;;;5002074;28;35347;-75
2022/03/14 00:11:43;;;;;;;2.60;2.28;;;10.10;46.20;;;;;;5002550;28;34190;-74
2022/03/14 00:14:09;;;;;;;4.03;2.70;;;10.00;46.00;;;;;;4969184;28;34188;-75
2022/03/14 00:16:38;;;;;;;2.90;2.55;;;10.00;46.10;;;;;;4984977;28;34263;-74
2022/03/14 00:19:06;;;;;;;2.60;2.10;;;10.00;46.00;;;;;;4984737;28;35986;-75
2022/03/14 00:21:35;;;;;;;2.83;2.15;;;10.00;46.10;;;;;;4985513;28;34169;-75
2022/03/14 00:24:02;;;;;;;2.75;2.00;;;10.00;46.10;;;;;;4985095;28;34266;-75
2022/03/14 00:26:28;;;;;;;3.35;2.20;;;9.90;46.30;;;;;;5002525;28;34202;-75
2022/03/14 00:28:54;;;;;;;2.35;2.15;;;10.00;46.10;;;;;;4984502;28;35550;-75
2022/03/14 00:31:21;;;;;;;2.40;2.10;;;9.90;46.40;;;;;;4984363;28;34045;-75
2022/03/14 00:33:48;;;;;;;3.40;2.38;;;9.90;46.10;;;;;;4984496;28;34318;-75
2022/03/14 00:36:14;;;;;;;3.22;2.08;;;10.00;46.10;;;;;;4984706;28;34584;-75
2022/03/14 00:38:41;;;;;;;2.90;2.15;;;9.90;46.10;;;;;;5001998;28;34080;-75
2022/03/14 00:41:08;;;;;;;2.10;1.83;;;9.90;46.00;;;;;;4984236;28;34171;-75
2022/03/14 00:43:35;;;;;;;2.15;1.95;;;9.90;46.20;;;;;;4969485;28;34287;-76
2022/03/14 00:46:01;;;;;;;3.03;2.00;;;9.90;46.10;;;;;;4971957;28;34496;-75
2022/03/14 00:48:27;;;;;;;2.25;2.00;;;9.90;46.20;;;;;;5004740;28;34199;-76
2022/03/14 00:50:54;;;;;;;1.75;1.63;;;9.90;46.30;;;;;;4987731;28;34183;-75
2022/03/14 00:53:20;;;;;;;2.38;2.03;;;9.90;46.20;;;;;;4988160;28;34483;-76
2022/03/14 00:55:46;;;;;;;2.00;1.80;;;9.90;46.10;;;;;;4987808;28;34488;-75
2022/03/14 00:58:12;;;;;;;3.17;1.90;;;9.90;46.10;;;;;;4987601;28;36328;-75
2022/03/14 01:00:39;;;;;;;3.17;1.70;;;9.90;46.10;;;;;;4987714;28;34204;-75
2022/03/14 01:03:05;;;;;;;2.03;1.83;;;9.90;46.10;;;;;;4987306;28;34370;-74
2022/03/14 01:05:31;;;;;;;1.70;1.50;;;9.80;46.40;;;;;;4987428;28;34187;-75
2022/03/14 01:07:57;;;;;;;1.40;1.30;;;9.70;47.20;;;;;;4987529;28;34415;-75
2022/03/14 01:10:23;;;;;;;1.60;1.30;;;9.70;46.70;;;;;;5005166;28;34234;-75
2022/03/14 01:12:50;;;;;;;1.25;1.15;;;9.70;46.70;;;;;;4986764;28;34271;-75
2022/03/14 01:15:16;;;;;;;1.08;1.00;;;9.70;46.40;;;;;;4986993;28;34499;-75
2022/03/14 01:17:42;;;;;;;1.38;1.00;;;9.70;46.00;;;;;;5004178;28;34265;-74
2022/03/14 01:20:10;;;;;;;1.05;0.95;;;9.60;46.10;;;;;;4988298;28;34297;-75
2022/03/14 01:22:38;;;;;;;1.20;1.10;;;9.60;46.10;;;;;;4971957;28;34192;-75
2022/03/14 01:25:05;;;;;;;1.15;0.90;;;9.60;45.90;;;;;;4988244;28;34173;-77
2022/03/14 01:27:31;;;;;;;1.00;0.90;;;9.60;46.00;;;;;;4971979;28;36181;-75
2022/03/14 01:29:57;;;;;;;0.98;0.98;;;9.60;45.70;;;;;;4987410;28;34432;-75
2022/03/14 01:32:23;;;;;;;1.25;0.90;;;9.60;45.50;;;;;;4988076;28;34113;-75
2022/03/14 01:34:49;;;;;;;1.15;1.05;;;9.50;45.50;;;;;;4987921;28;34168;-75
2022/03/14 01:37:19;;;;;;;0.88;0.88;;;9.50;45.20;;;;;;4987038;28;35755;-76
2022/03/14 01:39:46;;;;;;;0.80;0.80;;;9.50;45.40;;;;;;4986971;28;34279;-76
2022/03/14 01:42:17;;;;;;;0.65;0.65;;;9.40;45.20;;;;;;4986964;28;34298;-75
2022/03/14 01:44:44;;;;;;;0.73;0.73;;;9.40;45.50;;;;;;4987649;28;34374;-76
2022/03/14 01:47:11;;;;;;;1.50;1.00;;;9.40;45.10;;;;;;4986900;28;36619;-76
2022/03/14 01:49:37;;;;;;;0.82;0.82;;;9.40;45.20;;;;;;5004545;28;34644;-76
2022/03/14 01:52:05;;;;;;;0.70;0.70;;;9.30;45.10;;;;;;4970988;28;34502;-76
2022/03/14 01:54:31;;;;;;;0.80;0.80;;;9.30;45.30;;;;;;4970657;28;34279;-76
2022/03/14 01:56:58;;;;;;;0.90;0.90;;;9.20;45.10;;;;;;4986553;28;35684;-76
2022/03/14 01:59:26;;;;;;;0.80;0.80;;;9.20;45.10;;;;;;4987674;28;34450;-76
2022/03/14 02:01:52;;;;;;;0.95;0.80;;;9.30;45.10;;;;;;4970789;28;34264;-76
2022/03/14 02:04:19;;;;;;;0.88;0.88;;;9.30;45.20;;;;;;4987641;28;34529;-76
2022/03/14 02:06:46;;;;;;;0.80;0.80;;;9.30;45.10;;;;;;4986539;28;35864;-78
2022/03/14 02:09:12;;;;;;;0.80;0.80;;;9.30;45.10;;;;;;5004928;28;34246;-77
2022/03/14 02:11:39;;;;;;;0.90;0.90;;;9.30;45.20;;;;;;4987453;28;34104;-76
2022/03/14 02:14:06;;;;;;;1.45;0.90;;;9.30;45.00;;;;;;4987235;28;34480;-76
2022/03/14 02:16:32;;;;;;;1.08;1.00;;;9.30;45.00;;;;;;4987272;28;35627;-76
2022/03/14 02:18:58;;;;;;;0.85;0.85;;;9.30;45.10;;;;;;4988213;28;34263;-77
2022/03/14 02:21:24;;;;;;;0.90;0.90;;;9.20;45.00;;;;;;4971077;28;34325;-77
2022/03/14 02:23:50;;;;;;;0.93;0.90;;;9.30;45.00;;;;;;4987695;28;34230;-77
2022/03/14 02:26:18;;;;;;;0.80;0.80;;;9.30;45.00;;;;;;4986254;28;36371;-77
2022/03/14 02:28:44;;;;;;;0.80;0.80;;;9.20;45.00;;;;;;5005046;28;34142;-77
2022/03/14 02:31:10;;;;;;;0.82;0.75;;;9.20;44.90;;;;;;4987877;28;34171;-77
2022/03/14 02:33:36;;;;;;;0.80;0.80;;;9.20;44.90;;;;;;4987341;28;34101;-77
2022/03/14 02:36:01;;;;;;;0.95;0.95;;;9.30;44.90;;;;;;5003510;28;34288;-77
2022/03/14 02:38:27;;;;;;;0.75;0.75;;;9.30;44.90;;;;;;4987262;28;34122;-76
2022/03/14 02:40:53;;;;;;;1.08;1.08;;;9.20;44.90;;;;;;4987406;28;34258;-76
2022/03/14 02:43:24;;;;;;;0.98;0.95;;;9.20;44.90;;;;;;4986634;28;34373;-77
2022/03/14 02:45:52;;;;;;;1.30;1.20;;;9.20;45.00;;;;;;4986163;28;35802;-76
2022/03/14 02:48:19;;;;;;;1.05;0.93;;;9.20;45.10;;;;;;5004070;28;34285;-77
2022/03/14 02:50:49;;;;;;;2.10;0.98;;;9.20;45.20;;;;;;5003489;28;34318;-77
2022/03/14 02:53:15;;;;;;;1.95;1.00;;;9.20;45.50;;;;;;4986907;28;34350;-77
2022/03/14 02:55:41;;;;;;;0.90;0.90;;;9.20;45.30;;;;;;4986136;28;36052;-77
2022/03/14 02:58:08;;;;;;;1.10;1.00;;;9.10;45.50;;;;;;4969870;28;34262;-76
2022/03/14 03:00:35;;;;;;;0.90;0.90;;;9.10;45.50;;;;;;4986390;28;34223;-77
2022/03/14 03:03:03;;;;;;;2.22;1.10;;;9.10;45.90;;;;;;4986559;28;34139;-77
2022/03/14 03:05:31;;;;;;;0.77;0.77;;;9.10;46.20;;;;;;4985544;28;35995;-76
2022/03/14 03:08:01;;;;;;;1.33;0.90;;;9.00;45.90;;;;;;4969601;28;34147;-77
2022/03/14 03:10:28;;;;;;;1.33;1.00;;;9.00;45.70;;;;;;4970266;28;34264;-77
2022/03/14 03:12:54;;;;;;;1.58;0.80;;;9.00;45.90;;;;;;4986311;28;34218;-77
2022/03/14 03:15:21;;;;;;;1.10;1.00;;;9.00;45.90;;;;;;4985842;28;35876;-76
2022/03/14 03:17:47;;;;;;;1.10;0.90;;;9.00;46.00;;;;;;4985357;28;34145;-77
2022/03/14 03:20:14;;;;;;;1.08;1.02;;;9.00;46.30;;;;;;4970403;28;34137;-77
2022/03/14 03:22:40;;;;;;;1.45;1.20;;;9.00;45.80;;;;;;4970334;28;34172;-77
2022/03/14 03:25:07;;;;;;;1.92;0.98;;;9.00;45.80;;;;;;4985833;28;35713;-77
2022/03/14 03:27:33;;;;;;;2.25;1.20;;;9.10;45.70;;;;;;4970252;28;34408;-77
2022/03/14 03:29:59;;;;;;;1.75;1.23;;;9.10;45.80;;;;;;4985653;28;34284;-77
2022/03/14 03:32:26;;;;;;;1.85;1.25;;;9.10;45.60;;;;;;4986053;28;34009;-77
2022/03/14 03:34:53;;;;;;;1.30;1.20;;;9.10;45.50;;;;;;4985382;28;36174;-77
2022/03/14 03:37:19;;;;;;;2.25;1.50;;;9.10;45.50;;;;;;4970107;28;34218;-77
2022/03/14 03:39:45;;;;;;;1.30;1.20;;;9.10;45.50;;;;;;4985599;28;34261;-77
2022/03/14 03:42:11;;;;;;;1.95;1.40;;;9.10;45.50;;;;;;4969571;28;34409;-77
2022/03/14 03:44:37;;;;;;;1.23;1.05;;;9.10;45.50;;;;;;4985147;28;35782;-77
2022/03/14 03:47:04;;;;;;;1.60;1.27;;;9.10;45.60;;;;;;5002874;28;34236;-77
2022/03/14 03:49:31;;;;;;;1.40;1.30;;;9.10;45.50;;;;;;4985353;28;34179;-77
2022/03/14 03:51:57;;;;;;;1.63;1.23;;;9.10;45.40;;;;;;4969178;28;34305;-77
2022/03/14 03:54:23;;;;;;;2.40;1.33;;;9.10;45.50;;;;;;5002576;28;34416;-77
2022/03/14 03:56:49;;;;;;;2.13;1.33;;;9.10;45.50;;;;;;5003067;28;34315;-77
2022/03/14 03:59:16;;;;;;;2.00;1.58;;;9.10;45.60;;;;;;4985920;28;34306;-77
2022/03/14 04:01:43;;;;;;;4.13;1.58;;;9.10;45.70;;;;;;4985100;28;34477;-77
2022/03/14 04:04:11;;;;;;;2.20;1.48;;;9.00;45.80;;;;;;4985002;28;35555;-76
2022/03/14 04:06:39;;;;;;;5.15;1.60;;;9.00;46.20;;;;;;4984778;28;34080;-76
2022/03/14 04:09:06;;;;;;;3.45;1.35;;;9.00;46.00;;;;;;5002330;28;34195;-76
2022/03/14 04:11:33;;;;;;;3.50;1.30;;;8.90;46.00;;;;;;4985459;28;34175;-77
2022/03/14 04:13:59;;;;;;;2.10;1.35;;;8.90;46.20;;;;;;5002627;28;34334;-76
2022/03/14 04:16:26;;;;;;;2.83;1.38;;;8.90;46.00;;;;;;4985816;28;34296;-77
2022/03/14 04:18:53;;;;;;;4.07;1.40;;;8.90;46.30;;;;;;5003853;28;33704;-77
2022/03/14 04:21:19;;;;;;;1.73;1.60;;;8.90;46.30;;;;;;4972839;28;34524;-77
2022/03/14 04:23:45;;;;;;;3.67;1.60;;;8.90;46.30;;;;;;5005709;28;35088;-77
2022/03/14 04:26:12;;;;;;;3.22;1.55;;;8.90;46.30;;;;;;4988243;28;34303;-76
2022/03/14 04:28:39;;;;;;;1.73;1.35;;;8.90;46.60;;;;;;4987923;28;34212;-76
2022/03/14 04:31:06;;;;;;;3.90;1.65;;;8.90;46.30;;;;;;4988747;28;34365;-77
2022/03/14 04:33:33;;;;;;;3.90;1.90;;;8.90;46.90;;;;;;4988990;28;34350;-77
2022/03/14 04:35:59;;;;;;;4.40;1.77;;;8.80;46.50;;;;;;4989327;28;34199;-77
2022/03/14 04:38:27;;;;;;;4.55;1.55;;;8.90;46.30;;;;;;4989281;28;34370;-77
2022/03/14 04:40:53;;;;;;;4.10;1.75;;;8.90;46.40;;;;;;4973053;28;34088;-78
2022/03/14 04:43:21;;;;;;;9.23;2.00;;;8.90;46.20;;;;;;4988965;28;36063;-77
2022/03/14 04:45:48;;;;;;;3.33;1.80;;;8.90;46.00;;;;;;4972257;28;34199;-77
2022/03/14 04:48:15;;;;;;;3.78;1.90;;;8.90;45.90;;;;;;4973485;28;34278;-77
2022/03/14 04:50:42;;;;;;;6.70;1.90;;;8.90;45.80;;;;;;4990047;28;34146;-78
2022/03/14 04:53:09;;;;;;;4.28;1.55;;;8.90;45.90;;;;;;4972977;28;35795;-77
2022/03/14 04:55:36;;;;;;;6.00;1.80;;;8.90;45.70;;;;;;4957608;28;34386;-77
2022/03/14 04:58:04;;;;;;;3.88;1.50;;;8.90;45.70;;;;;;4987716;28;34792;-77
2022/03/14 05:00:30;;;;;;;2.17;1.65;;;9.00;45.70;;;;;;4988597;28;34170;-76
2022/03/14 05:03:01;;;;;;;10.23;1.85;;;9.00;45.70;;;;;;4988264;28;35655;-76
2022/03/14 05:05:29;;;;;;;2.30;1.70;;;9.00;46.10;;;;;;4987439;28;34288;-77
2022/03/14 05:08:00;;;;;;;3.50;1.70;;;8.90;45.70;;;;;;4973671;28;34355;-77
2022/03/14 05:10:26;;;;;;;2.75;1.63;;;8.90;45.70;;;;;;4987639;28;34341;-77
2022/03/14 05:12:52;;;;;;;3.58;1.70;;;9.00;45.70;;;;;;4987270;28;35834;-77
2022/03/14 05:15:19;;;;;;;4.93;1.70;;;8.90;45.60;;;;;;5005040;28;34280;-77
2022/03/14 05:17:45;;;;;;;8.00;1.55;;;8.90;45.70;;;;;;4971378;28;34313;-76
2022/03/14 05:20:12;;;;;;;4.55;1.48;;;8.90;45.70;;;;;;4972246;28;34196;-78
2022/03/14 05:22:43;;;;;;;2.20;1.60;;;8.90;45.80;;;;;;4987085;28;35601;-77
2022/03/14 05:25:10;;;;;;;2.90;2.10;;;8.90;46.10;;;;;;4988035;28;34142;-77
2022/03/14 05:27:38;;;;;;;2.63;1.77;;;8.90;45.70;;;;;;4987893;28;34186;-77
2022/03/14 05:30:06;;;;;;;3.22;1.73;;;8.90;45.70;;;;;;5019401;28;34437;-77
2022/03/14 05:32:32;;;;;;;4.15;2.15;;;8.90;45.80;;;;;;4988180;28;35934;-77
2022/03/14 05:34:58;;;;;;;3.95;1.95;;;8.90;45.70;;;;;;4988144;28;34603;-77
2022/03/14 05:37:25;;;;;;;2.88;1.60;;;8.90;46.40;;;;;;4972182;28;34293;-76
2022/03/14 05:39:51;;;;;;;2.17;1.92;;;8.90;45.70;;;;;;4988081;28;33884;-77
2022/03/14 05:42:17;;;;;;;6.15;2.15;;;8.90;45.60;;;;;;4954801;28;35708;-77
2022/03/14 05:44:44;;;;;;;2.97;1.63;;;8.90;45.70;;;;;;5004230;28;34107;-77
2022/03/14 05:47:10;;;;;;;4.05;1.83;;;8.90;45.70;;;;;;5020185;28;34370;-76
2022/03/14 05:49:36;;;;;;;3.00;1.70;;;8.90;45.80;;;;;;4970979;28;34072;-76
2022/03/14 05:52:02;;;;;;;3.78;1.88;;;8.80;45.70;;;;;;4986475;28;35589;-77
2022/03/14 05:54:28;;;;;;;4.13;1.92;;;8.90;45.70;;;;;;5019822;28;34442;-77
2022/03/14 05:56:54;;;;;;;6.72;2.17;;;8.80;45.60;;;;;;5003540;28;34149;-77
2022/03/14 05:59:21;;;;;;;3.90;1.95;;;8.90;45.60;;;;;;5019996;28;34095;-77
2022/03/14 06:01:48;;;;;;;5.32;2.10;;;8.90;45.70;;;;;;4970768;28;36416;-77
2022/03/14 06:04:14;;;;;;;3.83;2.05;;;8.80;45.60;;;;;;4972016;28;34446;-77
2022/03/14 06:06:42;;;;;;;2.35;1.70;;;8.90;45.70;;;;;;5020195;28;34201;-77
2022/03/14 06:09:08;;;;;;;3.67;1.70;;;8.80;45.40;;;;;;4970810;28;34400;-76
2022/03/14 06:11:34;;;;;;;4.47;1.70;;;8.80;45.40;;;;;;4986957;28;34767;-77
2022/03/14 06:14:01;;;;;;;4.22;2.08;;;8.80;45.60;;;;;;5003206;28;34175;-77
2022/03/14 06:16:27;;;;;;;4.57;1.88;;;8.90;45.60;;;;;;4986286;28;34218;-77
2022/03/14 06:18:53;;;;;;;3.50;1.90;;;8.90;45.50;;;;;;4986866;28;34202;-76
2022/03/14 06:21:19;;;;;;;2.25;1.77;;;8.90;45.50;;;;;;4970482;28;35478;-76
2022/03/14 06:23:45;;;;;;;4.10;2.10;;;8.90;45.60;;;;;;5003624;28;34221;-77
2022/03/14 06:26:11;;;;;;;3.65;1.90;;;8.90;45.30;;;;;;5020162;28;34309;-77
2022/03/14 06:28:37;;;;;;;4.07;1.65;;;8.90;45.40;;;;;;5004299;28;34448;-77
2022/03/14 06:31:03;;;;;;;2.65;1.77;;;8.90;45.40;;;;;;4970089;28;36627;-77
2022/03/14 06:33:29;;;;;;;3.30;1.90;;;8.90;45.30;;;;;;4954821;28;34441;-77
2022/03/14 06:35:55;;;;;;;2.58;1.85;;;9.00;45.30;;;;;;4987105;28;34171;-77
2022/03/14 06:38:21;;;;;;;2.65;1.80;;;8.90;45.30;;;;;;4971238;28;34236;-77
2022/03/14 06:40:47;;;;;;;2.67;1.67;;;9.00;45.20;;;;;;5001912;28;36571;-76
2022/03/14 06:43:14;;;;;;;5.82;2.10;;;9.00;45.20;;;;;;5002911;28;34203;-77
2022/03/14 06:45:41;;;;;;;3.97;1.75;;;9.00;45.20;;;;;;5019704;28;34402;-77
2022/03/14 06:48:07;;;;;;;4.55;2.08;;;9.00;45.20;;;;;;5019073;28;34256;-76
2022/03/14 06:50:36;;;;;;;4.47;2.00;;;9.00;45.30;;;;;;5019469;28;36014;-77
2022/03/14 06:53:03;;;;;;;2.75;1.90;;;9.00;45.40;;;;;;4971266;28;34305;-77
2022/03/14 06:55:29;;;;;;;2.92;1.75;;;9.00;45.20;;;;;;5003273;28;34266;-76
2022/03/14 06:57:55;;;;;;;3.58;2.00;;;9.00;45.20;;;;;;5018663;28;34201;-76
2022/03/14 07:00:21;;;;;;;5.25;1.90;;;9.00;45.20;;;;;;4970018;28;34694;-76
2022/03/14 07:02:47;;;;;;;3.85;1.85;;;9.00;45.20;;;;;;4986104;28;34212;-77
2022/03/14 07:05:18;;;;;;;2.67;2.22;;;9.00;45.20;;;;;;5002003;28;34487;-77
2022/03/14 07:07:45;;;;;;;2.20;2.00;;;9.00;45.20;;;;;;5003520;28;34093;-77
2022/03/14 07:10:13;;;;;;;3.47;2.25;;;9.10;45.10;;;;;;4970106;28;36162;-76
2022/03/14 07:12:49;;;;;;;4.50;2.25;;;9.10;45.00;;;;;;4986505;28;34207;-76
2022/03/14 07:15:19;;;;;;;5.20;2.08;;;9.10;45.00;;;;;;4986144;28;34270;-76
2022/03/14 07:17:45;;;;;;;3.10;1.90;;;9.10;45.20;;;;;;4969999;28;34413;-77
2022/03/14 07:20:13;;;;;;;5.32;2.00;;;9.00;45.00;;;;;;5002891;28;35196;-76
2022/03/14 07:22:58;;;;;;;3.13;1.65;;;9.00;45.00;;;;;;4985744;28;34275;-77
2022/03/14 07:25:28;;;;;;;3.53;1.92;;;9.10;46.00;;;;;;4970286;28;34154;-77
2022/03/14 07:27:55;;;;;;;2.88;1.90;;;9.00;45.10;;;;;;4969299;28;34137;-77
2022/03/14 07:30:23;;;;;;;2.60;2.17;;;9.10;45.00;;;;;;4986206;28;35815;-77
2022/03/14 07:32:49;;;;;;;3.63;2.10;;;9.10;45.00;;;;;;4985848;28;34147;-77
2022/03/14 07:35:15;;;;;;;2.55;2.00;;;9.10;44.90;;;;;;5018987;28;34206;-76
2022/03/14 07:37:42;;;;;;;2.65;2.10;;;9.20;44.80;;;;;;5003155;28;34071;-76
2022/03/14 07:40:09;;;;;;;2.55;1.83;;;9.10;44.60;;;;;;4985285;28;36765;-76
2022/03/14 07:42:43;;;;;;;3.13;2.13;;;9.10;45.00;;;;;;4970001;28;34210;-76
2022/03/14 07:45:10;;;;;;;4.60;2.38;;;9.20;44.90;;;;;;4985428;28;34270;-76
2022/03/14 07:47:37;;;;;;;2.60;2.00;;;9.20;44.70;;;;;;5004097;28;34281;-76
2022/03/14 07:50:05;;;;;;;5.78;2.22;;;9.20;44.60;;;;;;4986399;28;36475;-76
2022/03/14 07:52:32;;;;;;;2.30;2.00;;;9.30;44.80;;;;;;4986838;28;34304;-76
2022/03/14 07:55:01;;;;;;;6.25;2.35;;;9.20;44.60;;;;;;5007100;28;34064;-77
2022/03/14 07:57:27;;;;;;;2.33;1.95;;;9.20;44.60;;;;;;5023213;28;34047;-76
2022/03/14 07:59:53;;;;;;;4.65;2.42;;;9.30;44.60;;;;;;5005838;28;36426;-76
2022/03/14 08:02:20;;;;;;;2.38;2.00;;;9.30;44.60;;;;;;4989972;28;34335;-76
2022/03/14 08:04:46;;;;;;;2.25;2.00;;;9.40;44.80;;;;;;4972497;28;34227;-76
2022/03/14 08:07:13;;;;;;;4.20;2.60;;;9.40;44.50;;;;;;4972857;28;34441;-77
2022/03/14 08:09:39;;;;;;;5.57;1.88;;;9.40;44.40;;;;;;5022669;28;36782;-78
2022/03/14 08:12:05;;;;;;;3.78;2.30;;;9.40;44.60;;;;;;5023178;28;34169;-77
2022/03/14 08:14:32;;;;;;;5.93;2.33;;;9.50;44.60;;;;;;4974059;28;34137;-76
2022/03/14 08:16:58;;;;;;;4.55;2.13;;;9.50;44.50;;;;;;5022565;28;34488;-76
2022/03/14 08:19:25;;;;;;;3.03;2.20;;;9.50;44.50;;;;;;5022957;28;36736;-77
2022/03/14 08:21:51;;;;;;;2.53;2.17;;;9.50;44.50;;;;;;4974103;28;34405;-77
2022/03/14 08:24:18;;;;;;;5.53;2.03;;;9.50;44.40;;;;;;4974240;28;34240;-77
2022/03/14 08:26:44;;;;;;;6.47;2.75;;;9.50;44.40;;;;;;4974136;28;34097;-78
2022/03/14 08:29:10;;;;;;;4.18;2.60;;;9.50;44.40;;;;;;4989928;28;35547;-77
2022/03/14 08:31:37;;;;;;;7.82;2.15;;;9.60;44.50;;;;;;5022977;28;34379;-77
2022/03/14 08:34:06;;;;;;;3.00;1.98;;;9.50;44.40;;;;;;5007899;28;34139;-78
2022/03/14 08:36:33;;;;;;;5.25;2.15;;;9.60;44.40;;;;;;4974912;28;34112;-77
2022/03/14 08:38:59;;;;;;;3.00;2.13;;;9.60;44.30;;;;;;5022987;28;35569;-77
2022/03/14 08:41:25;;;;;;;3.95;2.10;;;9.60;44.30;;;;;;5022457;28;34129;-76
2022/03/14 08:43:51;;;;;;;2.97;2.38;;;9.70;44.20;;;;;;4989798;28;34010;-77
2022/03/14 08:46:16;;;;;;;3.85;1.95;;;9.70;44.20;;;;;;5022754;28;33999;-77
2022/03/14 08:48:42;;;;;;;2.55;1.88;;;9.70;44.00;;;;;;4973106;28;35419;-77
2022/03/14 08:51:08;;;;;;;3.95;2.40;;;9.70;43.90;;;;;;4989220;28;34233;-77
2022/03/14 08:53:34;;;;;;;5.80;2.03;;;9.70;44.00;;;;;;5007426;28;34059;-78
2022/03/14 08:56:03;;;;;;;3.78;2.10;;;9.70;44.00;;;;;;5022946;28;34170;-77
2022/03/14 08:58:29;;;;;;;2.70;2.08;;;9.70;43.90;;;;;;4988314;28;35840;-77
2022/03/14 09:00:59;;;;;;;2.47;2.20;;;9.70;43.90;;;;;;4989444;28;34063;-77
2022/03/14 09:03:26;;;;;;;2.67;1.70;;;9.70;44.10;;;;;;5007648;28;34099;-78
2022/03/14 09:05:56;;;;;;;5.97;2.17;;;9.70;43.90;;;;;;4987858;28;34263;-77
2022/03/14 09:08:23;;;;;;;1.98;1.65;;;9.70;43.90;;;;;;4987797;28;35573;-77
2022/03/14 09:10:50;;;;;;;5.50;1.90;;;9.70;44.00;;;;;;4988012;28;34264;-77
2022/03/14 09:13:18;;;;;;;2.97;1.60;;;9.70;44.10;;;;;;4988582;28;34220;-78
2022/03/14 09:15:44;;;;;;;5.07;1.95;;;9.70;43.90;;;;;;4988209;28;34171;-77
2022/03/14 09:18:09;;;;;;;3.67;2.00;;;9.70;43.90;;;;;;4989892;28;35816;-77
2022/03/14 09:20:38;;;;;;;4.53;2.33;;;9.80;43.90;;;;;;5007097;28;34499;-77
2022/03/14 09:23:04;;;;;;;6.85;1.92;;;9.80;43.60;;;;;;4988953;28;34287;-77
2022/03/14 09:25:30;;;;;;;3.35;2.10;;;9.90;43.60;;;;;;4990072;28;34486;-77
2022/03/14 09:27:57;;;;;;;2.83;1.77;;;10.00;43.60;;;;;;5006136;28;34218;-79
2022/03/14 09:30:24;;;;;;;5.63;2.10;;;10.00;43.50;;;;;;4989915;28;34373;-78
2022/03/14 09:32:51;;;;;;;3.65;2.03;;;10.10;43.50;;;;;;4988897;28;34199;-77
2022/03/14 09:35:18;;;;;;;5.75;1.98;;;10.30;43.30;;;;;;4988391;28;34210;-77
2022/03/14 09:37:45;;;;;;;3.35;1.73;;;10.30;42.80;;;;;;4987691;28;36189;-77
2022/03/14 09:40:16;;;;;;;2.55;1.92;;;10.50;42.60;;;;;;4988154;28;34428;-77
2022/03/14 09:42:44;;;;;;;2.47;1.80;;;10.60;42.30;;;;;;4973007;28;34215;-78
2022/03/14 09:45:14;;;;;;;4.45;1.90;;;10.90;42.10;;;;;;5007277;28;34185;-78
2022/03/14 09:47:42;;;;;;;2.67;1.70;;;11.20;41.60;;;;;;4974293;28;35072;-78
2022/03/14 09:50:12;;;;;;;2.60;1.70;;;11.50;41.30;;;;;;4972398;28;34263;-77
2022/03/14 09:55:16;;;;;;;1.92;1.48;;;11.80;40.20;;;;;;5006492;28;34120;-77
2022/03/14 09:57:42;;;;;;;4.75;2.33;;;11.80;39.60;;;;;;5005500;28;34364;-76
2022/03/14 10:00:13;;;;;;;5.50;1.65;;;12.00;39.10;;;;;;4988915;28;34055;-78
2022/03/14 10:02:40;;;;;;;1.92;1.42;;;12.30;39.20;;;;;;4957722;28;34033;-77
2022/03/14 10:05:10;;;;;;;2.05;1.60;;;12.50;38.40;;;;;;4989519;28;34423;-78
2022/03/14 10:07:37;;;;;;;2.42;1.38;;;12.70;37.50;;;;;;4974598;28;35635;-77
2022/03/14 10:10:05;;;;;;;3.85;1.50;;;12.70;37.90;;;;;;4988769;28;34191;-78
2022/03/14 10:12:33;;;;;;;3.33;1.50;;;12.70;37.80;;;;;;4955741;28;34253;-77
2022/03/14 10:15:01;;;;;;;6.03;1.40;;;12.70;37.80;;;;;;5005224;28;34459;-77
2022/03/14 10:17:27;;;;;;;3.90;1.77;;;12.70;37.60;;;;;;4987845;28;35659;-77
2022/03/14 10:19:55;;;;;;;5.93;1.50;;;12.80;37.80;;;;;;4988208;28;34338;-77
2022/03/14 10:22:22;;;;;;;5.57;1.77;;;13.10;37.40;;;;;;4987947;28;34316;-78
2022/03/14 10:25:01;;;;;;;2.35;1.35;;;13.10;37.10;;;;;;4971914;28;34366;-77
2022/03/14 10:27:27;;;;;;;4.45;1.75;;;13.10;36.90;;;;;;4972479;28;35637;-77
2022/03/14 10:29:53;;;;;;;3.75;1.40;;;13.30;36.00;;;;;;4986962;28;34175;-78
2022/03/14 10:35:05;;;;;;;5.18;1.30;;;13.70;35.50;;;;;;4991460;28;34374;-77
2022/03/14 10:37:33;;;;;;;4.80;1.58;;;13.80;34.60;;;;;;5005853;28;34246;-78
2022/03/14 10:40:01;;;;;;;3.75;1.20;;;13.80;34.50;;;;;;4971438;28;34462;-76
2022/03/14 10:42:27;;;;;;;6.07;1.55;;;13.80;34.70;;;;;;4988656;28;34221;-77
2022/03/14 10:44:55;;;;;;;3.33;1.27;;;13.90;34.90;;;;;;4988303;28;34455;-78
2022/03/14 10:47:24;;;;;;;2.15;1.33;;;14.10;34.00;;;;;;4988732;28;35347;-77
2022/03/14 10:49:50;;;;;;;4.75;1.63;;;14.30;31.50;;;;;;4989951;28;34171;-78
2022/03/14 10:52:20;;;;;;;4.93;1.63;;;14.40;33.70;;;;;;4988744;28;34516;-77
2022/03/14 10:54:46;;;;;;;4.03;1.30;;;14.70;32.70;;;;;;4958036;28;34596;-77
2022/03/14 10:57:17;;;;;;;4.20;1.30;;;14.90;33.10;;;;;;4984723;28;35608;-78
2022/03/14 10:59:47;;;;;;;3.65;1.20;;;14.90;32.80;;;;;;4988749;28;33771;-77
2022/03/14 11:02:19;;;;;;;4.65;1.27;;;14.90;31.70;;;;;;4970509;28;34382;-78
2022/03/14 11:05:05;;;;;;;5.72;1.42;;;14.70;31.70;;;;;;4986179;28;34614;-78
2022/03/14 11:07:32;;;;;;;4.53;1.58;;;14.50;32.70;;;;;;4983289;28;35627;-77
2022/03/14 11:10:00;;;;;;;4.93;1.10;;;14.30;32.50;;;;;;4965772;28;34508;-77
2022/03/14 11:12:28;;;;;;;4.97;1.45;;;14.00;32.60;;;;;;4965969;28;34277;-77
2022/03/14 11:14:59;;;;;;;3.97;1.00;;;14.00;32.50;;;;;;4966557;28;34560;-78
2022/03/14 11:17:28;;;;;;;3.47;1.10;;;13.80;32.40;;;;;;4982573;28;34431;-77
2022/03/14 11:19:56;;;;;;;5.40;1.30;;;13.90;32.90;;;;;;4965320;28;34290;-77
2022/03/14 11:22:26;;;;;;;3.95;1.10;;;13.90;32.70;;;;;;4950187;28;34443;-76
2022/03/14 11:24:54;;;;;;;3.40;1.25;;;13.90;31.60;;;;;;4966807;28;34311;-77
2022/03/14 11:27:27;;;;;;;2.38;1.17;;;14.00;32.40;;;;;;4966409;28;35613;-77
2022/03/14 11:29:59;;;;;;;1.90;0.90;;;14.00;29.80;;;;;;4949305;28;34383;-76
2022/03/14 11:32:25;;;;;;;4.28;1.13;;;14.10;31.80;;;;;;4951190;28;34224;-77
2022/03/14 11:34:51;;;;;;;5.03;1.42;;;14.20;31.70;;;;;;4964920;28;34307;-75
2022/03/14 11:37:18;;;;;;;4.20;1.25;;;14.20;31.70;;;;;;5015791;28;35783;-76
2022/03/14 11:39:45;;;;;;;6.85;1.58;;;14.40;30.20;;;;;;4983413;28;34215;-76
2022/03/14 11:42:15;;;;;;;2.97;1.30;;;14.60;31.20;;;;;;4966398;28;34345;-76
2022/03/14 11:44:43;;;;;;;5.10;1.17;;;14.80;30.30;;;;;;4983322;28;34575;-77
2022/03/14 11:47:11;;;;;;;4.32;1.10;;;15.00;30.50;;;;;;4968084;28;35535;-77
2022/03/14 11:49:40;;;;;;;2.53;1.23;;;15.20;29.90;;;;;;5000944;28;34289;-77
2022/03/14 11:52:11;;;;;;;2.38;1.02;;;15.20;29.60;;;;;;4998084;28;34150;-78
2022/03/14 11:54:57;;;;;;;3.42;1.00;;;15.20;29.40;;;;;;4987708;28;34069;-77
2022/03/14 11:57:41;;;;;;;5.32;1.10;;;15.20;24.80;;;;;;4970103;28;36713;-76
2022/03/14 12:00:32;;;;;;;7.28;1.40;;;15.20;22.60;;;;;;4988158;28;34193;-78
2022/03/14 12:03:01;;;;;;;4.43;1.10;;;15.00;25.20;;;;;;4987131;28;34097;-77
2022/03/14 12:05:47;;;;;;;5.90;1.20;;;15.00;29.60;;;;;;4983463;28;34078;-77
2022/03/14 12:08:53;;;;;;;4.45;0.98;;;15.00;24.40;;;;;;4955092;28;35597;-77
2022/03/14 12:11:37;;;;;;;3.30;1.17;;;14.90;26.50;;;;;;4975271;28;34406;-77
2022/03/14 12:14:08;;;;;;;2.33;0.98;;;14.80;26.30;;;;;;4967460;28;34485;-76
2022/03/14 12:16:39;;;;;;;4.45;1.20;;;14.70;29.50;;;;;;4966248;28;34481;-76
2022/03/14 12:19:29;;;;;;;3.17;1.10;;;14.60;29.80;;;;;;4950300;28;35885;-77
2022/03/14 12:21:57;;;;;;;7.18;1.45;;;14.60;24.50;;;;;;4967643;28;34109;-77
2022/03/14 12:24:43;;;;;;;4.45;1.35;;;14.70;27.20;;;;;;4952003;28;34338;-76
2022/03/14 12:27:21;;;;;;;3.50;1.20;;;15.00;25.20;;;;;;4964994;28;34474;-76
2022/03/14 12:29:49;;;;;;;1.88;0.70;;;15.00;26.10;;;;;;4967069;28;35788;-77
2022/03/14 12:32:35;;;;;;;1.85;0.80;;;15.00;28.10;;;;;;4950803;28;34475;-76
2022/03/14 12:35:26;;;;;;;5.15;1.00;;;14.90;24.10;;;;;;4967283;28;34164;-77
2022/03/14 12:37:55;;;;;;;3.47;0.98;;;14.80;25.40;;;;;;4967136;28;34844;-76
2022/03/14 12:40:42;;;;;;;3.05;1.00;;;14.70;28.00;;;;;;4952539;28;35629;-76
2022/03/14 12:43:12;;;;;;;2.40;1.10;;;14.60;25.30;;;;;;4974414;28;34169;-76
2022/03/14 12:45:41;;;;;;;6.70;1.05;;;14.50;27.80;;;;;;4957082;28;34279;-76
2022/03/14 12:48:19;;;;;;;1.48;0.93;;;14.60;27.70;;;;;;4956065;28;34239;-77
2022/03/14 12:51:01;;;;;;;3.53;0.75;;;14.60;26.10;;;;;;4970366;28;35483;-76
2022/03/14 12:53:44;;;;;;;3.88;0.70;;;14.70;24.60;;;;;;4969970;28;34187;-77
2022/03/14 12:56:13;;;;;;;2.88;0.90;;;14.80;24.30;;;;;;4968429;28;34157;-76
2022/03/14 12:58:50;;;;;;;3.42;0.77;;;14.90;27.10;;;;;;4955654;28;34273;-78
2022/03/14 13:01:17;;;;;;;2.47;0.82;;;14.90;26.20;;;;;;4955678;28;35606;-76
2022/03/14 13:03:46;;;;;;;3.63;0.93;;;14.80;27.40;;;;;;4970966;28;34355;-76